Time;durP1;ratioP1;P1;durP2;ratioP2;P2;SDS_P1;SDS_P2;PMS_P1;PMS_P2;Temp;Humidity;BMP_temperature;BMP_pressure;BME280_temperature;BME280_humidity;BME280_pressure;Samples;Min_cycle;Max_cycle;Signal;HPM_P1;HPM_P2
2022/08/15 00:00:25;;;;;;;;;;;;;;;23.62;100.00;100403.84;5095196;28;20040;-32
2022/08/15 00:02:54;;;;;;;;;;;;;;;23.59;100.00;100392.41;5096018;28;19959;-32
2022/08/15 00:05:29;;;;;;;;;;;;;;;23.57;100.00;100398.53;5095901;28;19927;-42
2022/08/15 00:07:59;;;;;;;;;;;;;;;23.57;100.00;100384.31;5095691;28;20307;-33
2022/08/15 00:10:28;;;;;;;;;;;;;;;23.56;100.00;100391.22;5095380;28;20418;-40
2022/08/15 00:13:17;;;;;;;;;;;;;;;23.54;100.00;100385.09;5087600;28;19969;-36
2022/08/15 00:15:46;;;;;;;;;;;;;;;23.52;100.00;100381.00;5094733;28;19924;-36
2022/08/15 00:18:14;;;;;;;;;;;;;;;23.50;100.00;100391.94;5095752;28;20380;-32
2022/08/15 00:20:42;;;;;;;;;;;;;;;23.45;100.00;100381.75;5095201;28;19920;-34
2022/08/15 00:23:19;;;;;;;;;;;;;;;23.42;100.00;100376.84;5084693;28;19919;-35
2022/08/15 00:25:54;;;;;;;;;;;;;;;23.41;100.00;100385.78;5095340;28;19927;-41
2022/08/15 00:28:25;;;;;;;;;;;;;;;23.36;100.00;100382.13;5095065;28;19986;-35
2022/08/15 00:31:08;;;;;;;;;;;;;;;23.32;100.00;100371.91;5095548;28;19930;-35
2022/08/15 00:33:38;;;;;;;;;;;;;;;23.26;100.00;100368.63;5084473;28;19927;-32
2022/08/15 00:36:07;;;;;;;;;;;;;;;23.26;100.00;100373.50;5094323;28;20078;-32
2022/08/15 00:38:55;;;;;;;;;;;;;;;23.20;100.00;100373.03;5085598;28;19920;-34
2022/08/15 00:41:41;;;;;;;;;;;;;;;23.17;100.00;100365.31;5095311;28;20003;-41
2022/08/15 00:44:11;;;;;;;;;;;;;;;23.15;100.00;100369.78;5085034;28;19920;-35
2022/08/15 00:46:42;;;;;;;;;;;;;;;23.12;100.00;100364.88;5095015;28;19943;-32
2022/08/15 00:49:11;;;;;;;;;;;;;;;23.10;100.00;100367.28;5083765;28;20030;-32
2022/08/15 00:51:42;;;;;;;;;;;;;;;23.05;100.00;100373.34;5092324;28;19955;-40
2022/08/15 00:54:19;;;;;;;;;;;;;;;23.00;100.00;100369.66;5082677;28;19920;-33
2022/08/15 00:57:10;;;;;;;;;;;;;;;22.95;100.00;100367.19;5093847;28;20283;-40
2022/08/15 00:59:45;;;;;;;;;;;;;;;22.94;100.00;100359.06;5095331;28;19931;-32
2022/08/15 01:02:25;;;;;;;;;;;;;;;22.92;100.00;100362.28;5093570;28;19973;-32
2022/08/15 01:05:06;;;;;;;;;;;;;;;22.89;100.00;100365.13;5092933;28;20032;-38
2022/08/15 01:07:44;;;;;;;;;;;;;;;22.86;100.00;100360.22;5093046;28;19928;-32
2022/08/15 01:10:18;;;;;;;;;;;;;;;22.84;100.00;100359.78;5093852;28;20456;-34
2022/08/15 01:12:54;;;;;;;;;;;;;;;22.82;100.00;100357.31;5094675;28;19920;-35
2022/08/15 01:15:22;;;;;;;;;;;;;;;22.80;100.00;100354.06;5094561;28;19927;-34
2022/08/15 01:17:55;;;;;;;;;;;;;;;22.78;100.00;100356.47;5092574;28;19919;-36
2022/08/15 01:20:26;;;;;;;;;;;;;;;22.72;100.00;100343.00;5092720;28;19920;-41
2022/08/15 01:23:02;;;;;;;;;;;;;;;22.69;100.00;100345.41;5091049;28;19920;-40
2022/08/15 01:25:36;;;;;;;;;;;;;;;22.65;100.00;100340.91;5081268;28;20292;-32
2022/08/15 01:28:25;;;;;;;;;;;;;;;22.61;100.00;100342.91;5091295;28;19920;-37
2022/08/15 01:31:00;;;;;;;;;;;;;;;22.56;100.00;100331.91;5091723;28;19923;-32
2022/08/15 01:33:33;;;;;;;;;;;;;;;22.55;100.00;100335.97;5092929;28;20365;-35
2022/08/15 01:36:03;;;;;;;;;;;;;;;22.51;100.00;100330.25;5093027;28;20448;-32
2022/08/15 01:38:55;;;;;;;;;;;;;;;22.48;100.00;100322.50;5091683;28;19920;-34
2022/08/15 01:41:38;;;;;;;;;;;;;;;22.43;100.00;100325.69;5094291;28;19974;-37
2022/08/15 01:44:23;;;;;;;;;;;;;;;22.40;100.00;100325.66;5092591;28;19920;-36
2022/08/15 01:47:02;;;;;;;;;;;;;;;22.33;100.00;100313.03;5093228;28;19924;-31
2022/08/15 01:49:33;;;;;;;;;;;;;;;22.31;100.00;100314.63;5092402;28;20348;-33
2022/08/15 01:52:08;;;;;;;;;;;;;;;22.26;100.00;100309.28;5093848;28;19931;-33
2022/08/15 01:54:58;;;;;;;;;;;;;;;22.22;100.00;100309.25;5092330;28;20012;-31
2022/08/15 01:57:35;;;;;;;;;;;;;;;22.20;100.00;100305.97;5092645;28;19955;-31
2022/08/15 02:00:05;;;;;;;;;;;;;;;22.17;100.00;100301.09;5091391;28;20369;-32
2022/08/15 02:02:45;;;;;;;;;;;;;;;22.13;100.00;100297.41;5092296;28;19942;-32
2022/08/15 02:05:14;;;;;;;;;;;;;;;22.12;100.00;100300.63;5092000;28;20343;-31
2022/08/15 02:07:42;;;;;;;;;;;;;;;22.09;100.00;100302.22;5091459;28;19967;-32
2022/08/15 02:10:31;;;;;;;;;;;;;;;22.05;100.00;100295.69;5092093;28;19968;-31
2022/08/15 02:13:01;;;;;;;;;;;;;;;22.04;100.00;100290.38;5092349;28;19977;-31
2022/08/15 02:15:42;;;;;;;;;;;;;;;22.01;100.00;100294.81;5092173;28;20010;-33
2022/08/15 02:18:11;;;;;;;;;;;;;;;21.99;100.00;100291.53;5093439;28;19924;-37
2022/08/15 02:20:49;;;;;;;;;;;;;;;21.95;100.00;100291.50;5091310;28;20007;-32
2022/08/15 02:23:18;;;;;;;;;;;;;;;21.93;100.00;100293.09;5092145;28;20293;-39
2022/08/15 02:25:47;;;;;;;;;;;;;;;21.90;100.00;100288.19;5091799;28;19970;-31
2022/08/15 02:28:17;;;;;;;;;;;;;;;21.86;100.00;100282.47;5091199;28;20270;-33
2022/08/15 02:31:08;;;;;;;;;;;;;;;21.82;100.00;100289.31;5091496;28;19928;-35
2022/08/15 02:33:38;;;;;;;;;;;;;;;21.78;100.00;100286.44;5092044;28;20377;-30
2022/08/15 02:36:13;;;;;;;;;;;;;;;21.75;100.00;100278.72;5090976;28;19969;-31
2022/08/15 02:38:59;;;;;;;;;;;;;;;21.73;100.00;100283.16;5092000;28;20039;-36
2022/08/15 02:41:31;;;;;;;;;;;;;;;21.70;100.00;100281.91;5091754;28;20022;-31
2022/08/15 02:44:14;;;;;;;;;;;;;;;21.65;100.00;100285.06;5091933;28;19927;-31
2022/08/15 02:46:56;;;;;;;;;;;;;;;21.64;100.00;100289.94;5091612;28;19993;-33
2022/08/15 02:49:33;;;;;;;;;;;;;;;21.64;100.00;100297.63;5070716;28;20412;-38
2022/08/15 02:52:15;;;;;;;;;;;;;;;21.60;100.00;100293.94;5089161;28;19920;-34
2022/08/15 02:54:50;;;;;;;;;;;;;;;21.58;100.00;100296.38;5093121;28;19930;-31
2022/08/15 02:57:31;;;;;;;;;;;;;;;21.56;100.00;100302.44;5090569;28;19920;-33
2022/08/15 03:00:21;;;;;;;;;;;;;;;21.52;100.00;100295.91;5091425;28;19930;-31
2022/08/15 03:02:53;;;;;;;;;;;;;;;21.51;100.00;100290.59;5090577;28;19924;-30
2022/08/15 03:05:24;;;;;;;;;;;;;;;21.49;100.00;100293.81;5091573;28;19920;-33
2022/08/15 03:07:52;;;;;;;;;;;;;;;21.49;100.00;100290.97;5092310;28;19931;-31
2022/08/15 03:10:21;;;;;;;;;;;;;;;21.50;100.00;100295.47;5090492;28;19920;-31
2022/08/15 03:12:57;;;;;;;;;;;;;;;21.50;100.00;100292.63;5091113;28;19971;-31
2022/08/15 03:15:31;;;;;;;;;;;;;;;21.50;100.00;100286.94;5090924;28;20300;-30
2022/08/15 03:18:02;;;;;;;;;;;;;;;21.49;100.00;100285.31;5090394;28;19920;-39
2022/08/15 03:20:31;;;;;;;;;;;;;;;21.49;100.00;100290.16;5082160;28;19923;-30
2022/08/15 03:23:01;;;;;;;;;;;;;;;21.48;100.00;100288.53;5090882;28;20295;-37
2022/08/15 03:25:39;;;;;;;;;;;;;;;21.47;100.00;100282.03;5090498;28;19926;-34
2022/08/15 03:28:25;;;;;;;;;;;;;;;21.46;100.00;100286.06;5091126;28;19975;-30
2022/08/15 03:30:58;;;;;;;;;;;;;;;21.42;100.00;100290.88;5090595;28;20018;-39
2022/08/15 03:33:27;;;;;;;;;;;;;;;21.39;100.00;100280.31;5090574;28;19931;-35
2022/08/15 03:36:18;;;;;;;;;;;;;;;21.36;100.00;100275.41;5088003;28;19921;-34
2022/08/15 03:38:50;;;;;;;;;;;;;;;21.35;100.00;100273.78;5089395;28;19920;-31
2022/08/15 03:41:22;;;;;;;;;;;;;;;21.33;100.00;100275.38;5092549;28;19920;-36
2022/08/15 03:43:50;;;;;;;;;;;;;;;21.29;100.00;100273.31;5090494;28;20293;-35
2022/08/15 03:46:21;;;;;;;;;;;;;;;21.27;100.00;100270.03;5085889;28;19920;-31
2022/08/15 03:48:52;;;;;;;;;;;;;;;21.24;100.00;100273.63;5084802;28;20498;-39
2022/08/15 03:51:25;;;;;;;;;;;;;;;21.22;100.00;100266.69;5089802;28;19962;-32
2022/08/15 03:53:59;;;;;;;;;;;;;;;21.20;100.00;100267.09;5088737;28;20385;-32
2022/08/15 03:56:31;;;;;;;;;;;;;;;21.17;100.00;100264.19;5089511;28;20048;-31
2022/08/15 03:59:00;;;;;;;;;;;;;;;21.15;100.00;100260.94;5088543;28;19928;-34
2022/08/15 04:01:35;;;;;;;;;;;;;;;21.14;100.00;100260.09;5089828;28;19930;-37
2022/08/15 04:04:05;;;;;;;;;;;;;;;21.11;100.00;100254.38;5089486;28;19920;-36
2022/08/15 04:06:47;;;;;;;;;;;;;;;21.08;100.00;100253.13;5086649;28;19920;-33
2022/08/15 04:09:28;;;;;;;;;;;;;;;21.07;100.00;100245.81;5089582;28;19924;-32
2022/08/15 04:11:58;;;;;;;;;;;;;;;21.07;100.00;100245.00;5089319;28;19931;-36
2022/08/15 04:14:32;;;;;;;;;;;;;;;21.08;100.00;100236.09;5088354;28;19924;-33
2022/08/15 04:17:10;;;;;;;;;;;;;;;21.08;100.00;100241.78;5089376;28;19928;-32
2022/08/15 04:19:52;;;;;;;;;;;;;;;21.08;100.00;100250.28;5088819;28;19920;-32
2022/08/15 04:22:29;;;;;;;;;;;;;;;21.08;100.00;100263.66;5089352;28;20432;-31
2022/08/15 04:25:10;;;;;;;;;;;;;;;21.10;100.00;100255.56;5089883;28;20012;-31
2022/08/15 04:27:46;;;;;;;;;;;;;;;21.09;100.00;100266.09;5071867;28;19921;-31
2022/08/15 04:30:22;;;;;;;;;;;;;;;21.07;100.00;100273.38;5088627;28;19919;-31
2022/08/15 04:32:52;;;;;;;;;;;;;;;21.06;100.00;100285.91;5093128;28;20441;-31
2022/08/15 04:35:41;;;;;;;;;;;;;;;21.07;100.00;100276.19;5091765;28;19923;-31
2022/08/15 04:38:10;;;;;;;;;;;;;;;21.04;100.00;100263.59;5092971;28;19974;-31
2022/08/15 04:40:38;;;;;;;;;;;;;;;21.03;100.00;100263.97;5092606;28;19931;-30
2022/08/15 04:43:26;;;;;;;;;;;;;;;21.02;100.00;100265.19;5074299;28;19920;-30
2022/08/15 04:45:55;;;;;;;;;;;;;;;21.01;100.00;100263.56;5088980;28;20369;-31
2022/08/15 04:48:26;;;;;;;;;;;;;;;21.01;100.00;100266.38;5071702;28;19967;-31
2022/08/15 04:50:56;;;;;;;;;;;;;;;21.04;100.00;100274.94;5087913;28;20280;-34
2022/08/15 04:53:26;;;;;;;;;;;;;;;21.06;100.00;100266.88;5093021;28;19951;-39
2022/08/15 04:55:59;;;;;;;;;;;;;;;21.07;100.00;100262.84;5091744;28;19920;-31
2022/08/15 04:58:33;;;;;;;;;;;;;;;21.05;100.00;100259.56;5092522;28;19924;-32
2022/08/15 05:01:21;;;;;;;;;;;;;;;21.04;100.00;100263.59;5093887;28;19920;-31
2022/08/15 05:04:10;;;;;;;;;;;;;;;21.05;100.00;100265.25;5071903;28;19931;-31
2022/08/15 05:06:54;;;;;;;;;;;;;;;21.05;100.00;100259.56;5089271;28;19927;-31
2022/08/15 05:09:23;;;;;;;;;;;;;;;21.08;100.00;100267.31;5093019;28;19924;-35
2022/08/15 05:11:51;;;;;;;;;;;;;;;21.09;100.00;100259.63;5091841;28;19930;-32
2022/08/15 05:14:37;;;;;;;;;;;;;;;21.10;100.00;100262.06;5092542;28;19924;-31
2022/08/15 05:17:20;;;;;;;;;;;;;;;21.11;100.00;100260.06;5091264;28;20373;-34
2022/08/15 05:19:51;;;;;;;;;;;;;;;21.12;100.00;100253.19;5092044;28;19920;-34
2022/08/15 05:22:20;;;;;;;;;;;;;;;21.13;100.00;100255.63;5091742;28;20018;-32
2022/08/15 05:25:03;;;;;;;;;;;;;;;21.18;100.00;100257.31;5091506;28;20368;-31
2022/08/15 05:27:36;;;;;;;;;;;;;;;21.21;100.00;100256.56;5091953;28;20288;-32
2022/08/15 05:30:12;;;;;;;;;;;;;;;21.26;100.00;100259.88;5091803;28;19960;-31
2022/08/15 05:32:45;;;;;;;;;;;;;;;21.33;100.00;100253.47;5091562;28;19920;-30
2022/08/15 05:35:17;;;;;;;;;;;;;;;21.39;100.00;100257.59;5091926;28;20018;-32
2022/08/15 05:37:46;;;;;;;;;;;;;;;21.45;100.00;100260.91;5090042;28;19924;-32
2022/08/15 05:40:17;;;;;;;;;;;;;;;21.50;100.00;100269.91;5091996;28;20295;-37
2022/08/15 05:42:55;;;;;;;;;;;;;;;21.57;100.00;100270.00;5092809;28;20646;-33
2022/08/15 05:45:27;;;;;;;;;;;;;;;21.65;100.00;100273.72;5070957;28;20341;-36
2022/08/15 05:48:03;;;;;;;;;;;;;;;21.73;100.00;100260.44;5087821;28;20026;-38
2022/08/15 05:50:36;;;;;;;;;;;;;;;21.79;100.00;100270.22;5071363;28;19994;-31
2022/08/15 05:53:16;;;;;;;;;;;;;;;21.88;100.00;100268.69;5086549;28;20377;-32
2022/08/15 05:55:46;;;;;;;;;;;;;;;21.96;100.00;100266.75;5071533;28;20385;-31
2022/08/15 05:58:24;;;;;;;;;;;;;;;22.02;100.00;100262.38;5087141;28;19927;-31
2022/08/15 06:01:17;;;;;;;;;;;;;;;22.12;100.00;100267.34;5071245;28;19970;-31
2022/08/15 06:03:47;;;;;;;;;;;;;;;22.19;100.00;100264.56;5089892;28;20027;-32
2022/08/15 06:06:20;;;;;;;;;;;;;;;22.27;100.00;100268.28;5088808;28;19923;-32
2022/08/15 06:08:54;;;;;;;;;;;;;;;22.34;100.00;100274.84;5092555;28;19933;-32
2022/08/15 06:11:32;;;;;;;;;;;;;;;22.42;100.00;100284.25;5092236;28;20435;-39
2022/08/15 06:14:06;;;;;;;;;;;;;;;22.45;100.00;100285.50;5089864;28;19920;-40
2022/08/15 06:16:43;;;;;;;;;;;;;;;22.47;100.00;100289.56;5092594;28;19924;-30
2022/08/15 06:19:22;;;;;;;;;;;;;;;22.50;100.00;100287.97;5090885;28;19924;-31
2022/08/15 06:22:00;;;;;;;;;;;;;;;22.54;100.00;100286.81;5070492;28;20370;-31
2022/08/15 06:24:29;;;;;;;;;;;;;;;22.57;100.00;100297.38;5090877;28;20389;-35
2022/08/15 06:27:04;;;;;;;;;;;;;;;22.61;100.00;100306.75;5090454;28;19920;-32
2022/08/15 06:29:53;;;;;;;;;;;;;;;22.63;100.00;100310.00;5090831;28;20020;-40
2022/08/15 06:32:23;;;;;;;;;;;;;;;22.63;100.00;100312.03;5090782;28;19973;-38
2022/08/15 06:35:03;;;;;;;;;;;;;;;22.65;100.00;100315.31;5090146;28;19924;-41
2022/08/15 06:37:37;;;;;;;;;;;;;;;22.68;100.00;100323.88;5092676;28;19920;-31
2022/08/15 06:40:35;;;;;;;;;;;;;;;22.65;100.00;100329.53;5090663;28;19928;-32
2022/08/15 06:43:02;;;;;;;;;;;;;;;22.59;100.00;100322.56;5090361;28;19927;-31
2022/08/15 06:45:50;;;;;;;;;;;;;;;22.53;100.00;100315.63;5089139;28;19927;-31
2022/08/15 06:48:20;;;;;;;;;;;;;;;22.53;100.00;100309.94;5090857;28;19967;-31
2022/08/15 06:51:10;;;;;;;;;;;;;;;22.54;100.00;100305.88;5107028;28;19920;-31
2022/08/15 06:53:47;;;;;;;;;;;;;;;22.57;100.00;100325.00;5090253;28;20349;-30
2022/08/15 06:56:20;;;;;;;;;;;;;;;22.60;100.00;100321.34;5089672;28;19936;-31
2022/08/15 06:58:52;;;;;;;;;;;;;;;22.60;100.00;100322.16;5090143;28;19970;-33
2022/08/15 07:01:32;;;;;;;;;;;;;;;22.59;100.00;100326.22;5090507;28;20353;-35
2022/08/15 07:04:21;;;;;;;;;;;;;;;22.58;100.00;100327.44;5090224;28;19930;-33
2022/08/15 07:07:05;;;;;;;;;;;;;;;22.57;100.00;100328.69;5088365;28;19920;-39
2022/08/15 07:09:44;;;;;;;;;;;;;;;22.55;100.00;100338.81;5089263;28;20003;-35
2022/08/15 07:12:23;;;;;;;;;;;;;;;22.53;100.00;100338.38;5090087;28;20381;-32
2022/08/15 07:15:11;;;;;;;;;;;;;;;22.49;100.00;100338.34;5090040;28;19924;-33
2022/08/15 07:17:45;;;;;;;;;;;;;;;22.46;100.00;100338.31;5089422;28;19926;-36
2022/08/15 07:20:22;;;;;;;;;;;;;;;22.43;100.00;100339.91;5089956;28;19920;-31
2022/08/15 07:23:19;;;;;;;;;;;;;;;22.40;100.00;100340.69;5089395;28;20423;-32
2022/08/15 07:25:49;;;;;;;;;;;;;;;22.39;100.00;100335.38;5089863;28;19926;-31
2022/08/15 07:28:19;;;;;;;;;;;;;;;22.40;100.00;100340.69;5089788;28;19959;-31
2022/08/15 07:30:51;;;;;;;;;;;;;;;22.44;100.00;100337.88;5088935;28;20270;-37
2022/08/15 07:33:31;;;;;;;;;;;;;;;22.46;100.00;100341.16;5090429;28;20015;-31
2022/08/15 07:36:05;;;;;;;;;;;;;;;22.48;100.00;100336.72;5090320;28;19920;-31
2022/08/15 07:38:35;;;;;;;;;;;;;;;22.52;100.00;100325.38;5088987;28;19924;-31
2022/08/15 07:41:14;;;;;;;;;;;;;;;22.58;100.00;100335.19;5088467;28;19931;-30
2022/08/15 07:43:42;;;;;;;;;;;;;;;22.62;100.00;100342.50;5090817;28;19924;-30
2022/08/15 07:46:19;;;;;;;;;;;;;;;22.67;100.00;100338.50;5089250;28;19924;-34
2022/08/15 07:48:56;;;;;;;;;;;;;;;22.75;100.00;100351.56;5089260;28;19928;-35
2022/08/15 07:51:26;;;;;;;;;;;;;;;22.79;100.00;100340.22;5086961;28;20369;-32
2022/08/15 07:54:06;;;;;;;;;;;;;;;22.82;100.00;100345.94;5088499;28;19931;-31
2022/08/15 07:56:52;;;;;;;;;;;;;;;22.84;100.00;100343.53;5089665;28;19965;-31
2022/08/15 07:59:21;;;;;;;;;;;;;;;22.88;100.00;100327.31;5087956;28;19920;-33
2022/08/15 08:02:20;;;;;;;;;;;;;;;22.96;100.00;100331.03;5093592;28;19920;-39
2022/08/15 08:05:05;;;;;;;;;;;;;;;23.06;100.00;100335.13;5070740;28;20059;-35
2022/08/15 08:07:35;;;;;;;;;;;;;;;23.05;100.00;100336.34;5090856;28;19924;-32
2022/08/15 08:10:14;;;;;;;;;;;;;;;23.06;100.00;100326.59;5079621;28;19919;-31
2022/08/15 08:13:03;;;;;;;;;;;;;;;23.11;100.00;100324.22;5093286;28;19920;-32
2022/08/15 08:15:56;;;;;;;;;;;;;;;23.24;100.00;100327.53;5074328;28;19927;-35
2022/08/15 08:18:41;;;;;;;;;;;;;;;23.37;100.00;100328.84;5089724;28;19927;-31
2022/08/15 08:21:13;;;;;;;;;;;;;;;23.57;100.00;100321.63;5093637;28;20055;-31
2022/08/15 08:24:01;;;;;;;;;;;;;;;23.80;100.00;100329.84;5091386;28;19924;-39
2022/08/15 08:26:31;;;;;;;;;;;;;;;24.04;100.00;100328.28;5094752;28;19927;-32
2022/08/15 08:29:06;;;;;;;;;;;;;;;24.42;100.00;100323.88;5094038;28;19924;-31
2022/08/15 08:31:40;;;;;;;;;;;;;;;24.90;100.00;100315.72;5094357;28;19927;-30
2022/08/15 08:34:35;;;;;;;;;;;;;;;25.40;100.00;100318.47;5092575;28;19928;-30
2022/08/15 08:37:20;;;;;;;;;;;;;;;26.01;97.62;100313.31;5095298;28;19959;-30
2022/08/15 08:39:56;;;;;;;;;;;;;;;26.28;97.07;100311.50;5084676;28;19969;-35
2022/08/15 08:42:48;;;;;;;;;;;;;;;26.35;91.44;100314.38;5094847;28;19920;-29
2022/08/15 08:45:25;;;;;;;;;;;;;;;26.29;91.71;100312.34;5095302;28;19945;-32
2022/08/15 08:48:06;;;;;;;;;;;;;;;26.24;90.02;100321.34;5094299;28;19927;-30
2022/08/15 08:50:39;;;;;;;;;;;;;;;26.18;90.38;100320.97;5095395;28;19924;-32
2022/08/15 08:53:19;;;;;;;;;;;;;;;26.20;90.39;100327.09;5094958;28;19928;-32
2022/08/15 08:55:58;;;;;;;;;;;;;;;26.20;88.84;100326.28;5094138;28;19920;-32
2022/08/15 08:58:31;;;;;;;;;;;;;;;26.17;90.53;100330.81;5094439;28;19920;-32
2022/08/15 09:01:14;;;;;;;;;;;;;;;26.52;90.17;100320.38;5094766;28;20451;-32
2022/08/15 09:03:47;;;;;;;;;;;;;;;26.88;87.75;100321.69;5094685;28;19926;-33
2022/08/15 09:06:21;;;;;;;;;;;;;;;27.16;85.97;100316.94;5095080;28;20292;-34
2022/08/15 09:08:55;;;;;;;;;;;;;;;27.41;85.19;100318.25;5093696;28;19920;-35
2022/08/15 09:11:26;;;;;;;;;;;;;;;27.63;82.37;100318.84;5093812;28;19924;-32
2022/08/15 09:13:56;;;;;;;;;;;;;;;27.88;81.79;100323.44;5094052;28;20292;-32
2022/08/15 09:16:30;;;;;;;;;;;;;;;28.29;81.07;100331.91;5092791;28;19931;-40
2022/08/15 09:19:03;;;;;;;;;;;;;;;28.85;78.38;100330.19;5093532;28;20014;-36
2022/08/15 09:21:38;;;;;;;;;;;;;;;29.25;69.94;100328.22;5092472;28;19967;-38
2022/08/15 09:24:11;;;;;;;;;;;;;;;29.53;70.57;100329.75;5092954;28;20383;-39
2022/08/15 09:27:01;;;;;;;;;;;;;;;29.90;65.66;100331.41;5093702;28;19927;-31
2022/08/15 09:29:30;;;;;;;;;;;;;;;30.13;63.38;100325.59;5092598;28;20391;-38
2022/08/15 09:32:10;;;;;;;;;;;;;;;30.21;64.19;100329.09;5094114;28;19931;-31
2022/08/15 09:35:05;;;;;;;;;;;;;;;30.09;64.79;100321.16;5093336;28;19920;-42
2022/08/15 09:37:47;;;;;;;;;;;;;;;30.06;65.09;100319.16;5093107;28;20266;-37
2022/08/15 09:40:29;;;;;;;;;;;;;;;30.03;65.89;100323.75;5093617;28;19931;-37
2022/08/15 09:43:34;;;;;;;;;;;;;;;29.99;64.60;100327.94;5073246;28;19931;-33
2022/08/15 09:46:22;;;;;;;;;;;;;;;29.77;64.01;100318.97;5090923;28;20311;-33
2022/08/15 09:49:12;;;;;;;;;;;;;;;29.39;66.80;100319.31;5093399;28;19924;-38
2022/08/15 09:51:58;;;;;;;;;;;;;;;29.35;66.58;100326.38;5092078;28;20124;-39
2022/08/15 09:54:33;;;;;;;;;;;;;;;29.17;65.39;100323.88;5093347;28;19920;-42
2022/08/15 09:57:34;;;;;;;;;;;;;;;28.79;68.63;100324.09;5091585;28;20020;-42
2022/08/15 10:00:18;;;;;;;;;;;;;;;28.67;69.68;100324.72;5092251;28;20331;-37
2022/08/15 10:02:48;;;;;;;;;;;;;;;28.51;67.12;100318.84;5083061;28;20389;-32
2022/08/15 10:05:25;;;;;;;;;;;;;;;28.31;70.30;100326.53;5092116;28;20281;-32
2022/08/15 10:07:54;;;;;;;;;;;;;;;28.29;72.00;100326.97;5083714;28;19931;-38
2022/08/15 10:10:45;;;;;;;;;;;;;;;28.41;72.41;100323.50;5092594;28;19927;-40
2022/08/15 10:13:25;;;;;;;;;;;;;;;28.49;70.56;100320.53;5082982;28;19946;-34
2022/08/15 10:15:56;;;;;;;;;;;;;;;28.46;70.65;100325.06;5091851;28;20034;-41
2022/08/15 10:18:44;;;;;;;;;;;;;;;28.45;70.43;100329.19;5092492;28;19920;-31
2022/08/15 10:21:21;;;;;;;;;;;;;;;28.57;71.34;100327.78;5092449;28;19926;-37
2022/08/15 10:23:51;;;;;;;;;;;;;;;28.63;71.80;100328.88;5092907;28;19927;-37
2022/08/15 10:26:27;;;;;;;;;;;;;;;28.71;70.46;100331.22;5092117;28;19927;-35
2022/08/15 10:29:05;;;;;;;;;;;;;;;28.75;70.04;100328.28;5093343;28;19920;-41
2022/08/15 10:31:42;;;;;;;;;;;;;;;28.88;71.84;100334.25;5092738;28;20377;-31
2022/08/15 10:34:37;;;;;;;;;;;;;;;29.11;69.02;100325.63;5092308;28;20032;-32
2022/08/15 10:37:09;;;;;;;;;;;;;;;29.36;69.18;100325.13;5092999;28;19924;-32
2022/08/15 10:39:43;;;;;;;;;;;;;;;29.57;66.45;100324.75;5092490;28;19924;-40
2022/08/15 10:42:19;;;;;;;;;;;;;;;29.57;65.86;100339.13;5092514;28;19951;-41
2022/08/15 10:44:57;;;;;;;;;;;;;;;29.34;61.41;100339.13;5092738;28;19920;-32
2022/08/15 10:47:33;;;;;;;;;;;;;;;28.96;63.88;100333.69;5092106;28;20078;-32
2022/08/15 10:50:07;;;;;;;;;;;;;;;28.70;67.13;100325.91;5092835;28;19970;-39
2022/08/15 10:52:43;;;;;;;;;;;;;;;28.59;67.84;100325.25;5092477;28;19934;-33
2022/08/15 10:55:24;;;;;;;;;;;;;;;28.64;69.89;100336.25;5091890;28;20002;-33
2022/08/15 10:58:14;;;;;;;;;;;;;;;28.54;67.36;100343.00;5092589;28;19932;-36
2022/08/15 11:00:44;;;;;;;;;;;;;;;28.34;70.49;100345.78;5092925;28;19977;-31
2022/08/15 11:03:20;;;;;;;;;;;;;;;28.20;69.87;100351.69;5092354;28;19951;-32
2022/08/15 11:05:55;;;;;;;;;;;;;;;28.11;70.07;100352.22;5092119;28;19979;-32
2022/08/15 11:08:24;;;;;;;;;;;;;;;27.91;69.66;100348.41;5091817;28;19919;-32
2022/08/15 11:11:07;;;;;;;;;;;;;;;27.61;72.02;100346.31;5091837;28;20372;-32
2022/08/15 11:13:35;;;;;;;;;;;;;;;27.47;73.45;100349.31;5092414;28;19946;-31
2022/08/15 11:16:09;;;;;;;;;;;;;;;27.34;74.28;100355.63;5091641;28;19966;-32
2022/08/15 11:18:58;;;;;;;;;;;;;;;27.18;75.25;100360.31;5092441;28;19920;-40
2022/08/15 11:21:29;;;;;;;;;;;;;;;27.05;75.90;100377.19;5092504;28;20299;-32
2022/08/15 11:24:02;;;;;;;;;;;;;;;26.95;74.71;100383.84;5091551;28;19929;-31
2022/08/15 11:26:32;;;;;;;;;;;;;;;26.95;76.38;100380.97;5092452;28;19920;-34
2022/08/15 11:29:10;;;;;;;;;;;;;;;27.03;76.38;100386.19;5091656;28;20399;-39
2022/08/15 11:31:49;;;;;;;;;;;;;;;27.27;75.80;100387.19;5092648;28;20332;-36
2022/08/15 11:34:26;;;;;;;;;;;;;;;27.48;73.25;100386.16;5092250;28;19923;-32
2022/08/15 11:37:11;;;;;;;;;;;;;;;27.82;72.28;100379.66;5076038;28;20019;-32
2022/08/15 11:39:48;;;;;;;;;;;;;;;28.07;67.39;100386.69;5093532;28;19924;-30
2022/08/15 11:42:18;;;;;;;;;;;;;;;28.43;67.74;100394.81;5076431;28;19999;-38
2022/08/15 11:44:47;;;;;;;;;;;;;;;28.69;61.34;100388.28;5091125;28;19919;-33
2022/08/15 11:47:17;;;;;;;;;;;;;;;28.82;63.89;100387.69;5096385;28;19928;-32
2022/08/15 11:49:47;;;;;;;;;;;;;;;28.87;63.85;100388.00;5095996;28;19924;-36
2022/08/15 11:52:26;;;;;;;;;;;;;;;28.96;65.06;100385.41;5095820;28;19924;-31
2022/08/15 11:55:18;;;;;;;;;;;;;;;29.11;65.78;100400.31;5096480;28;19920;-32
2022/08/15 11:57:55;;;;;;;;;;;;;;;29.05;64.72;100405.75;5075432;28;19920;-35
2022/08/15 12:00:25;;;;;;;;;;;;;;;29.03;65.74;100416.06;5091956;28;19920;-32
2022/08/15 12:02:55;;;;;;;;;;;;;;;29.04;65.95;100412.75;5075717;28;19978;-31
2022/08/15 12:05:35;;;;;;;;;;;;;;;29.11;67.75;100418.38;5091555;28;20301;-31
2022/08/15 12:08:24;;;;;;;;;;;;;;;29.42;67.42;100419.06;5076158;28;20334;-33
2022/08/15 12:11:03;;;;;;;;;;;;;;;29.63;65.96;100420.72;5093843;28;19931;-35
2022/08/15 12:13:34;;;;;;;;;;;;;;;29.63;65.75;100426.47;5096050;28;20368;-39
2022/08/15 12:16:04;;;;;;;;;;;;;;;29.69;65.67;100418.16;5095019;28;19931;-33
2022/08/15 12:18:52;;;;;;;;;;;;;;;29.70;65.26;100426.34;5095041;28;19920;-35
2022/08/15 12:21:23;;;;;;;;;;;;;;;29.55;62.79;100427.88;5095348;28;19920;-36
2022/08/15 12:23:54;;;;;;;;;;;;;;;29.37;63.55;100436.00;5095722;28;19920;-36
2022/08/15 12:26:26;;;;;;;;;;;;;;;29.16;64.86;100448.69;5094374;28;20018;-32
2022/08/15 12:29:14;;;;;;;;;;;;;;;28.98;66.60;100443.22;5095779;28;19978;-32
2022/08/15 12:31:45;;;;;;;;;;;;;;;28.85;67.13;100447.94;5095329;28;19958;-36
2022/08/15 12:34:15;;;;;;;;;;;;;;;28.99;67.39;100452.66;5094833;28;19924;-39
2022/08/15 12:37:00;;;;;;;;;;;;;;;29.04;67.49;100447.22;5095088;28;20387;-32
2022/08/15 12:39:35;;;;;;;;;;;;;;;29.14;67.29;100454.06;5095075;28;19924;-34
2022/08/15 12:42:10;;;;;;;;;;;;;;;29.07;66.72;100448.41;5095320;28;19946;-33
2022/08/15 12:44:59;;;;;;;;;;;;;;;29.08;66.76;100453.72;5094038;28;19920;-35
2022/08/15 12:47:30;;;;;;;;;;;;;;;29.01;67.32;100453.03;5093822;28;19920;-32
2022/08/15 12:50:00;;;;;;;;;;;;;;;28.96;67.23;100456.41;5095598;28;19923;-43
2022/08/15 12:52:27;;;;;;;;;;;;;;;28.66;66.98;100452.31;5094809;28;19920;-31
2022/08/15 12:54:56;;;;;;;;;;;;;;;28.27;68.29;100450.00;5094234;28;19920;-35
2022/08/15 12:57:26;;;;;;;;;;;;;;;27.96;69.89;100451.19;5094476;28;19920;-37
2022/08/15 13:00:14;;;;;;;;;;;;;;;27.56;72.59;100445.06;5095023;28;19919;-32
2022/08/15 13:03:05;;;;;;;;;;;;;;;27.45;74.23;100459.47;5094032;28;20404;-33
2022/08/15 13:05:35;;;;;;;;;;;;;;;27.44;75.34;100454.16;5094830;28;19923;-32
2022/08/15 13:08:22;;;;;;;;;;;;;;;27.45;75.88;100447.19;5091160;28;20377;-32
2022/08/15 13:10:54;;;;;;;;;;;;;;;27.41;75.34;100443.53;5094863;28;19920;-32
2022/08/15 13:13:36;;;;;;;;;;;;;;;27.27;75.74;100443.69;5092087;28;19920;-32
2022/08/15 13:16:06;;;;;;;;;;;;;;;27.15;75.15;100447.09;5093836;28;20010;-31
2022/08/15 13:18:54;;;;;;;;;;;;;;;26.92;76.66;100445.59;5092799;28;20366;-35